createdAt,value
2022-12-03T05:00:32.685Z,76.71
2022-12-03T05:04:35.435Z,76.82
2022-12-03T05:08:38.037Z,76.37
2022-12-03T05:12:40.665Z,76.46
2022-12-03T05:16:44.711Z,76.19
2022-12-03T05:20:53.176Z,75.83
2022-12-03T05:24:56.686Z,75.25
2022-12-03T05:28:59.478Z,75.16
2022-12-03T05:33:03.616Z,75.05
2022-12-03T05:37:06.317Z,74.81
2022-12-03T05:41:22.892Z,74.88
2022-12-03T05:45:29.391Z,74.69
2022-12-03T05:49:33.377Z,74.12
2022-12-03T05:53:36.026Z,74.04
2022-12-03T05:57:38.981Z,74.03
2022-12-03T06:01:41.585Z,74.71
2022-12-03T06:05:45.671Z,73.52
2022-12-03T06:09:48.263Z,73.12
2022-12-03T06:13:50.962Z,73.69
2022-12-03T06:17:53.609Z,72.80
2022-12-03T06:21:57.650Z,73.13
2022-12-03T06:26:00.434Z,72.72
2022-12-03T06:30:03.145Z,72.58
2022-12-03T06:34:05.750Z,73.13
2022-12-03T06:38:09.703Z,73.35
2022-12-03T06:42:12.377Z,72.31
2022-12-03T06:46:15.063Z,71.96
2022-12-03T06:50:18.346Z,71.65
2022-12-03T06:54:22.381Z,71.15
2022-12-03T06:58:25.058Z,70.34
2022-12-03T07:02:27.757Z,71.02
2022-12-03T07:06:30.407Z,70.85
2022-12-03T07:10:34.358Z,70.89
2022-12-03T07:14:36.994Z,70.50
2022-12-03T07:18:39.630Z,70.38
2022-12-03T07:22:42.245Z,70.29
2022-12-03T07:26:46.180Z,70.02
2022-12-03T07:30:48.894Z,70.58
2022-12-03T07:34:51.995Z,70.45
2022-12-03T07:38:55.043Z,70.21
2022-12-03T07:42:58.980Z,69.68
2022-12-03T07:47:01.703Z,69.98
2022-12-03T07:51:04.516Z,69.78
2022-12-03T07:55:08.082Z,69.18
2022-12-03T07:59:12.065Z,69.25
2022-12-03T08:03:14.680Z,69.26
2022-12-03T08:07:17.291Z,69.34
2022-12-03T08:11:19.973Z,69.91
2022-12-03T08:15:25.655Z,69.40
2022-12-03T08:19:28.264Z,69.21
2022-12-03T08:23:30.912Z,69.66
2022-12-03T08:27:34.586Z,69.62
2022-12-03T08:31:38.798Z,70.04
2022-12-03T08:35:45.328Z,70.62
2022-12-03T08:39:49.688Z,70.74
2022-12-03T08:43:52.536Z,70.73
2022-12-03T08:47:58.091Z,70.58
2022-12-03T08:52:02.234Z,70.74
2022-12-03T08:56:14.069Z,71.21
2022-12-03T09:00:21.471Z,70.93
2022-12-03T09:04:29.988Z,71.10
2022-12-03T09:08:32.681Z,70.83
2022-12-03T09:12:35.595Z,70.68
2022-12-03T09:16:38.383Z,71.52
2022-12-03T09:20:42.353Z,71.09
2022-12-03T09:24:45.074Z,70.79
2022-12-03T09:28:48.273Z,71.06
2022-12-03T09:32:50.960Z,70.85
2022-12-03T09:36:54.994Z,70.05
2022-12-03T09:40:57.627Z,69.38
2022-12-03T09:45:01.141Z,69.30
2022-12-03T09:49:04.718Z,69.12
2022-12-03T09:53:14.007Z,68.94
2022-12-03T09:57:19.343Z,68.68
2022-12-03T10:01:22.240Z,67.97
2022-12-03T10:05:25.783Z,68.24
2022-12-03T10:09:30.387Z,67.85
2022-12-03T10:13:34.563Z,67.21
2022-12-03T10:17:37.292Z,67.05
2022-12-03T10:21:40.374Z,67.13
2022-12-03T10:25:55.065Z,66.99
2022-12-03T10:29:59.320Z,66.57
2022-12-03T10:34:01.921Z,66.43
2022-12-03T10:38:06.867Z,66.31
2022-12-03T10:42:16.848Z,65.86
2022-12-03T10:46:21.588Z,65.54
2022-12-03T10:50:24.273Z,65.15
2022-12-03T10:54:28.544Z,65.40
2022-12-03T10:58:37.065Z,65.97
2022-12-03T11:02:41.104Z,66.44
2022-12-03T11:06:43.873Z,66.21
2022-12-03T11:10:47.319Z,66.69
2022-12-03T11:15:07.610Z,66.79
2022-12-03T11:19:17.328Z,67.14
2022-12-03T11:24:21.458Z,68.02
2022-12-03T11:28:35.932Z,67.70
2022-12-03T11:33:22.275Z,67.76
2022-12-03T11:37:31.166Z,68.26
2022-12-03T11:41:35.970Z,68.21
2022-12-03T11:45:39.769Z,67.82
2022-12-03T11:49:49.823Z,67.16
2022-12-03T11:53:54.201Z,66.58
2022-12-03T11:58:00.429Z,66.52
2022-12-03T12:02:20.930Z,66.69
2022-12-03T12:06:23.551Z,66.49
2022-12-03T12:10:47.132Z,65.84
2022-12-03T12:14:51.156Z,65.96
2022-12-03T12:18:55.338Z,66.01
2022-12-03T12:23:23.031Z,66.14
2022-12-03T12:27:35.915Z,66.45
2022-12-03T12:31:39.979Z,66.53
2022-12-03T12:35:43.220Z,66.51
2022-12-03T12:39:46.177Z,67.07
2022-12-03T12:43:48.779Z,67.16
2022-12-03T12:48:03.121Z,68.15
2022-12-03T12:52:06.819Z,67.99
2022-12-03T12:56:21.882Z,68.25
2022-12-03T13:00:24.773Z,68.61
2022-12-03T13:04:31.494Z,68.95
2022-12-03T13:08:39.018Z,68.34
2022-12-03T13:12:41.867Z,68.21
2022-12-03T13:16:45.374Z,67.75
2022-12-03T13:20:50.674Z,67.82
2022-12-03T13:25:00.126Z,68.55
2022-12-03T13:29:07.513Z,68.40
2022-12-03T13:33:15.901Z,68.44
2022-12-03T13:37:23.268Z,69.47
2022-12-03T13:41:54.829Z,69.24
2022-12-03T13:45:57.690Z,69.53
2022-12-03T13:50:04.367Z,69.52
2022-12-03T13:54:16.076Z,70.20
2022-12-03T13:58:18.966Z,70.35
2022-12-03T14:02:21.759Z,70.23
2022-12-03T14:06:24.443Z,71.04
2022-12-03T14:10:29.712Z,71.13
2022-12-03T14:14:32.394Z,70.95
2022-12-03T14:18:34.989Z,70.47
2022-12-03T14:22:39.066Z,70.74
2022-12-03T14:26:44.398Z,71.39
2022-12-03T14:30:47.237Z,71.09
2022-12-03T14:34:50.042Z,70.97
2022-12-03T14:38:52.975Z,71.10
2022-12-03T14:42:57.010Z,70.97
2022-12-03T14:46:59.616Z,70.33
2022-12-03T14:51:02.237Z,70.33
2022-12-03T14:55:05.483Z,70.71
2022-12-03T14:59:09.575Z,70.76
2022-12-03T15:03:12.211Z,70.69
2022-12-03T15:07:14.839Z,70.93
2022-12-03T15:11:17.563Z,71.15
2022-12-03T15:15:21.640Z,71.04
2022-12-03T15:19:24.545Z,71.42
2022-12-03T15:23:27.280Z,71.01
2022-12-03T15:27:30.181Z,71.56
2022-12-03T15:31:34.323Z,71.54
2022-12-03T15:35:37.176Z,71.49
2022-12-03T15:39:45.074Z,71.58
2022-12-03T15:43:52.250Z,71.27
2022-12-03T15:47:56.310Z,71.69
2022-12-03T15:51:59.116Z,72.91
2022-12-03T15:56:01.919Z,72.98
2022-12-03T16:00:06.109Z,73.50
2022-12-03T16:04:16.158Z,74.10
2022-12-03T16:08:18.898Z,74.54
2022-12-03T16:12:21.630Z,74.83
2022-12-03T16:16:24.379Z,74.47
2022-12-03T16:20:28.744Z,74.46
2022-12-03T16:24:31.454Z,74.02
2022-12-03T16:28:34.070Z,73.55
2022-12-03T16:32:36.739Z,73.38
2022-12-03T16:36:40.837Z,74.39
2022-12-03T16:40:43.538Z,74.43
2022-12-03T16:45:15.069Z,74.64
2022-12-03T16:49:17.909Z,74.61
2022-12-03T16:53:22.145Z,75.03
2022-12-03T16:57:33.183Z,74.46
2022-12-03T17:01:36.556Z,74.57
2022-12-03T17:05:39.257Z,74.39
2022-12-03T17:09:43.251Z,74.42
2022-12-03T17:13:45.937Z,74.33
2022-12-03T17:17:48.603Z,73.99
2022-12-03T17:21:51.283Z,73.56
2022-12-03T17:25:55.352Z,73.57
2022-12-03T17:29:57.949Z,74.46
2022-12-03T17:34:00.788Z,75.38
2022-12-03T17:38:03.530Z,75.59
2022-12-03T17:42:07.635Z,75.79
2022-12-03T17:46:10.371Z,75.74
2022-12-03T17:50:13.545Z,75.51
2022-12-03T17:54:16.229Z,75.31
2022-12-03T17:58:20.288Z,75.51
2022-12-03T18:02:37.972Z,75.99
2022-12-03T18:06:40.810Z,76.26
2022-12-03T18:10:43.511Z,76.25
2022-12-03T18:14:47.664Z,76.33
2022-12-03T18:18:56.216Z,76.65
2022-12-03T18:23:00.402Z,76.33
2022-12-03T18:27:03.271Z,76.44
2022-12-03T18:31:14.401Z,76.60
2022-12-03T18:35:17.964Z,76.82
2022-12-03T18:39:26.349Z,77.16
2022-12-03T18:43:35.634Z,77.08
2022-12-03T18:47:40.241Z,77.40
2022-12-03T18:51:43.081Z,77.41
2022-12-03T18:55:47.678Z,77.70
2022-12-03T18:59:54.483Z,78.09
2022-12-03T19:03:58.644Z,78.31
2022-12-03T19:08:01.446Z,78.61
2022-12-03T19:12:05.845Z,78.78
2022-12-03T19:16:12.007Z,79.05
2022-12-03T19:20:16.491Z,79.08
2022-12-03T19:24:26.263Z,78.98
2022-12-03T19:28:30.035Z,78.93
2022-12-03T19:32:32.731Z,79.03
2022-12-03T19:36:36.755Z,78.45
2022-12-03T19:40:39.449Z,78.44
2022-12-03T19:44:42.358Z,78.41
2022-12-03T19:48:45.271Z,78.28
2022-12-03T19:52:49.285Z,77.71
2022-12-03T19:56:52.069Z,77.82
2022-12-03T20:00:54.841Z,77.72
2022-12-03T20:04:57.583Z,77.87
2022-12-03T20:09:04.263Z,77.83
2022-12-03T20:13:07.009Z,77.90
2022-12-03T20:17:09.731Z,77.80
2022-12-03T20:21:14.508Z,78.01
2022-12-03T20:25:18.751Z,78.65
2022-12-03T20:29:21.450Z,79.01
2022-12-03T20:33:24.159Z,78.67
2022-12-03T20:37:26.967Z,79.20
2022-12-03T20:41:31.082Z,78.98
2022-12-03T20:45:33.834Z,78.68
2022-12-03T20:49:38.959Z,78.49
2022-12-03T20:53:42.546Z,78.42
2022-12-03T20:57:46.586Z,78.01
2022-12-03T21:01:49.573Z,77.87
2022-12-03T21:06:00.504Z,78.20
2022-12-03T21:10:03.914Z,78.02
2022-12-03T21:14:08.915Z,78.50
2022-12-03T21:18:14.069Z,78.68
2022-12-03T21:22:16.682Z,78.92
2022-12-03T21:26:21.271Z,79.48
2022-12-03T21:30:25.559Z,79.44
2022-12-03T21:34:34.355Z,78.84
2022-12-03T21:38:39.354Z,78.24
2022-12-03T21:42:42.854Z,78.15
2022-12-03T21:47:11.157Z,77.12
2022-12-03T21:51:12.440Z,76.48
2022-12-03T21:55:15.194Z,76.05
2022-12-03T21:59:17.818Z,75.62
